createdAt,value
2019-05-06T00:00:15.389Z,6.10
2019-05-06T00:00:58.763Z,6.10
2019-05-06T00:01:33.976Z,6.10
2019-05-06T00:02:13.669Z,6.10
2019-05-06T00:02:54.723Z,6.10
2019-05-06T00:03:31.617Z,6.10
2019-05-06T00:04:11.013Z,6.10
2019-05-06T00:04:50.851Z,6.10
2019-05-06T00:05:28.122Z,6.10
2019-05-06T00:06:05.813Z,6.10
2019-05-06T00:06:44.066Z,6.10
2019-05-06T00:07:21.673Z,6.10
2019-05-06T00:07:59.451Z,6.10
2019-05-06T00:08:39.403Z,6.10
2019-05-06T00:09:18.145Z,6.00
2019-05-06T00:10:00.387Z,6.00
2019-05-06T00:10:38.377Z,6.00
2019-05-06T00:11:16.530Z,6.00
2019-05-06T00:11:54.561Z,6.00
2019-05-06T00:12:33.524Z,6.00
2019-05-06T00:13:11.537Z,5.90
2019-05-06T00:13:49.693Z,5.90
2019-05-06T00:14:27.138Z,5.90
2019-05-06T00:15:06.078Z,5.90
2019-05-06T00:15:43.758Z,5.90
2019-05-06T00:16:23.776Z,5.90
2019-05-06T00:17:04.053Z,5.90
2019-05-06T00:17:44.624Z,5.90
2019-05-06T00:18:24.463Z,5.90
2019-05-06T00:19:01.277Z,5.90
2019-05-06T00:19:38.437Z,5.90
2019-05-06T00:20:16.459Z,5.90
2019-05-06T00:20:57.494Z,5.90
2019-05-06T00:21:35.499Z,5.90
2019-05-06T00:22:14.200Z,5.90
2019-05-06T00:22:54.601Z,5.90
2019-05-06T00:23:38.220Z,5.90
2019-05-06T00:24:15.453Z,5.90
2019-05-06T00:24:59.760Z,5.90
2019-05-06T00:25:46.978Z,5.90
2019-05-06T00:26:44.833Z,5.90
2019-05-06T00:27:31.241Z,5.90
2019-05-06T00:28:24.438Z,5.90
2019-05-06T00:29:04.655Z,5.90
2019-05-06T00:29:43.882Z,5.90
2019-05-06T00:30:24.300Z,5.90
2019-05-06T00:31:12.214Z,6.00
2019-05-06T00:31:43.899Z,6.00
2019-05-06T00:32:21.170Z,6.00
2019-05-06T00:32:58.289Z,6.00
2019-05-06T00:33:36.024Z,5.90
2019-05-06T00:34:13.938Z,6.00
2019-05-06T00:34:54.620Z,6.00
2019-05-06T00:35:34.287Z,6.00
2019-05-06T00:36:14.035Z,6.00
2019-05-06T00:36:51.062Z,6.00
2019-05-06T00:37:29.213Z,5.90
2019-05-06T00:38:07.073Z,5.90
2019-05-06T00:38:48.551Z,5.90
2019-05-06T00:39:45.091Z,5.90
2019-05-06T00:40:34.005Z,5.90
2019-05-06T00:41:14.939Z,5.90
2019-05-06T00:41:58.879Z,5.90
2019-05-06T00:42:41.380Z,5.90
2019-05-06T00:43:18.483Z,5.90
2019-05-06T00:43:55.933Z,5.90
2019-05-06T00:44:34.636Z,5.90
2019-05-06T00:45:13.673Z,5.90
2019-05-06T00:45:53.660Z,5.80
2019-05-06T00:46:30.889Z,5.90
2019-05-06T00:47:08.639Z,5.90
2019-05-06T00:47:46.125Z,5.90
2019-05-06T00:48:24.837Z,5.90
2019-05-06T00:49:03.817Z,5.80
2019-05-06T00:49:43.511Z,5.80
2019-05-06T00:50:21.494Z,5.80
2019-05-06T00:50:59.177Z,5.80
2019-05-06T00:51:36.829Z,5.80
2019-05-06T00:52:14.619Z,5.80
2019-05-06T00:52:53.950Z,5.80
2019-05-06T00:53:36.095Z,5.80
2019-05-06T00:54:20.257Z,5.80
2019-05-06T00:54:58.149Z,5.80
2019-05-06T00:55:35.579Z,5.70
2019-05-06T00:56:14.031Z,5.70
2019-05-06T00:56:55.261Z,5.70
2019-05-06T00:57:45.406Z,5.70
2019-05-06T00:58:23.787Z,5.70
2019-05-06T00:59:03.553Z,5.70
2019-05-06T00:59:40.807Z,5.70
2019-05-06T01:00:24.429Z,5.60
2019-05-06T01:01:04.459Z,5.60
2019-05-06T01:01:43.387Z,5.60
2019-05-06T01:02:20.523Z,5.60
2019-05-06T01:02:57.790Z,5.60
2019-05-06T01:03:35.509Z,5.60
2019-05-06T01:04:13.916Z,5.60
2019-05-06T01:04:54.030Z,5.60
2019-05-06T01:05:33.605Z,5.60
2019-05-06T01:06:10.971Z,5.60
2019-05-06T01:06:48.453Z,5.50
2019-05-06T01:07:25.877Z,5.50
2019-05-06T01:08:04.057Z,5.50
2019-05-06T01:08:45.641Z,5.50
2019-05-06T01:09:25.362Z,5.50
2019-05-06T01:10:03.789Z,5.50
2019-05-06T01:10:44.938Z,5.50
2019-05-06T01:11:23.884Z,5.40
2019-05-06T01:12:03.636Z,5.40
2019-05-06T01:12:44.653Z,5.40
2019-05-06T01:13:38.057Z,5.40
2019-05-06T01:14:23.542Z,5.40
2019-05-06T01:15:03.723Z,5.40
2019-05-06T01:15:41.089Z,5.40
2019-05-06T01:16:20.347Z,5.40
2019-05-06T01:16:57.730Z,5.30
2019-05-06T01:17:35.859Z,5.30
2019-05-06T01:18:13.768Z,5.30
2019-05-06T01:18:54.031Z,5.30
2019-05-06T01:19:31.489Z,5.30
2019-05-06T01:20:09.789Z,5.30
2019-05-06T01:20:49.314Z,5.30
2019-05-06T01:21:27.538Z,5.30
2019-05-06T01:22:05.465Z,5.30
2019-05-06T01:22:43.748Z,5.30
2019-05-06T01:23:23.369Z,5.20
2019-05-06T01:24:00.744Z,5.20
2019-05-06T01:24:38.738Z,5.20
2019-05-06T01:25:16.937Z,5.20
2019-05-06T01:25:54.595Z,5.20
2019-05-06T01:26:33.764Z,5.20
2019-05-06T01:27:12.103Z,5.20
2019-05-06T01:27:49.595Z,5.20
2019-05-06T01:28:27.030Z,5.20
2019-05-06T01:29:04.678Z,5.20
2019-05-06T01:29:44.150Z,5.20
2019-05-06T01:30:21.723Z,5.20
2019-05-06T01:30:59.314Z,5.20
2019-05-06T01:31:42.870Z,5.20
2019-05-06T01:32:17.251Z,5.10
2019-05-06T01:32:54.496Z,5.10
2019-05-06T01:33:35.061Z,5.10
2019-05-06T01:34:13.782Z,5.10
2019-05-06T01:34:53.229Z,5.10
2019-05-06T01:35:31.429Z,5.10
2019-05-06T01:36:09.196Z,5.10
2019-05-06T01:36:47.267Z,5.10
2019-05-06T01:37:27.453Z,5.10
2019-05-06T01:38:24.468Z,5.10
2019-05-06T01:39:29.677Z,5.10
2019-05-06T01:40:15.347Z,5.10
2019-05-06T01:41:01.150Z,5.10
2019-05-06T01:41:53.686Z,5.00
2019-05-06T01:42:35.273Z,5.00
2019-05-06T01:43:17.525Z,5.00
2019-05-06T01:43:57.944Z,5.00
2019-05-06T01:44:35.554Z,5.00
2019-05-06T01:45:14.148Z,5.00
2019-05-06T01:45:53.641Z,5.00
2019-05-06T01:46:33.963Z,5.00
2019-05-06T01:47:14.400Z,5.00
2019-05-06T01:47:51.339Z,5.00
2019-05-06T01:48:46.639Z,5.00
2019-05-06T01:49:24.648Z,5.00
2019-05-06T01:50:02.038Z,5.00
2019-05-06T01:50:39.846Z,4.90
2019-05-06T01:51:24.092Z,4.90
2019-05-06T01:52:03.887Z,4.90
2019-05-06T01:52:40.831Z,4.90
2019-05-06T01:53:18.669Z,4.90
2019-05-06T01:53:56.838Z,4.90
2019-05-06T01:54:34.461Z,4.90
2019-05-06T01:55:14.237Z,4.90
2019-05-06T01:55:52.005Z,4.90
2019-05-06T01:56:29.181Z,4.90
2019-05-06T01:57:07.076Z,4.90
2019-05-06T01:57:44.553Z,4.90
2019-05-06T01:58:24.223Z,4.90
2019-05-06T01:59:01.681Z,4.90
2019-05-06T01:59:39.165Z,4.90
2019-05-06T02:00:17.714Z,4.90
2019-05-06T02:00:54.790Z,4.80
2019-05-06T02:01:34.198Z,4.90
2019-05-06T02:02:14.156Z,4.80
2019-05-06T02:02:54.753Z,4.80
2019-05-06T02:03:34.652Z,4.80
2019-05-06T02:04:13.828Z,4.80
2019-05-06T02:04:54.036Z,4.80
2019-05-06T02:05:33.548Z,4.80
2019-05-06T02:06:13.883Z,4.80
2019-05-06T02:06:50.238Z,4.80
2019-05-06T02:07:27.723Z,4.80
2019-05-06T02:08:04.893Z,4.70
2019-05-06T02:08:44.541Z,4.70
2019-05-06T02:09:21.613Z,4.70
2019-05-06T02:09:59.405Z,4.70
2019-05-06T02:10:38.182Z,4.70
2019-05-06T02:11:16.225Z,4.70
2019-05-06T02:11:57.965Z,4.70
2019-05-06T02:12:36.010Z,4.70
2019-05-06T02:13:16.482Z,4.70
2019-05-06T02:13:54.323Z,4.70
2019-05-06T02:14:33.943Z,4.60
2019-05-06T02:15:14.613Z,4.60
2019-05-06T02:15:54.612Z,4.60
2019-05-06T02:16:31.307Z,4.60
2019-05-06T02:17:08.787Z,4.60
2019-05-06T02:17:46.858Z,4.60
2019-05-06T02:18:27.749Z,4.60
2019-05-06T02:19:05.692Z,4.60
2019-05-06T02:19:45.303Z,4.60
2019-05-06T02:20:24.509Z,4.60
2019-05-06T02:21:07.232Z,4.60
2019-05-06T02:22:04.223Z,4.60
2019-05-06T02:22:59.855Z,4.60
2019-05-06T02:23:40.754Z,4.60
2019-05-06T02:24:24.188Z,4.60
2019-05-06T02:25:06.641Z,4.60
2019-05-06T02:25:49.952Z,4.60
2019-05-06T02:26:27.774Z,4.60
2019-05-06T02:27:07.855Z,4.60
2019-05-06T02:27:45.676Z,4.60
2019-05-06T02:28:23.640Z,4.50
2019-05-06T02:29:04.263Z,4.50
2019-05-06T02:30:05.561Z,4.50
2019-05-06T02:30:57.494Z,4.50
2019-05-06T02:32:16.040Z,4.50
2019-05-06T02:33:04.554Z,4.50
2019-05-06T02:33:50.014Z,4.50
2019-05-06T02:34:45.926Z,4.50
2019-05-06T02:35:34.437Z,4.50
2019-05-06T02:36:16.343Z,4.50
2019-05-06T02:37:06.365Z,4.50
2019-05-06T02:37:46.488Z,4.50
2019-05-06T02:38:32.676Z,4.50
2019-05-06T02:39:05.577Z,4.50
2019-05-06T02:39:44.069Z,4.50
2019-05-06T02:40:25.623Z,4.50
2019-05-06T02:41:04.187Z,4.40
2019-05-06T02:41:43.022Z,4.40
2019-05-06T02:42:23.678Z,4.40
2019-05-06T02:43:03.046Z,4.40
2019-05-06T02:43:43.330Z,4.40
2019-05-06T02:44:19.834Z,4.40
2019-05-06T02:44:57.646Z,4.40
2019-05-06T02:45:35.659Z,4.40
2019-05-06T02:46:13.157Z,4.40
2019-05-06T02:46:57.993Z,4.40
2019-05-06T02:48:00.140Z,4.30
2019-05-06T02:49:03.939Z,4.30
2019-05-06T02:49:53.702Z,4.30
2019-05-06T02:50:53.465Z,4.30
2019-05-06T02:51:33.441Z,4.30
2019-05-06T02:52:13.831Z,4.30
2019-05-06T02:52:53.454Z,4.30
2019-05-06T02:53:29.369Z,4.30
2019-05-06T02:54:08.998Z,4.20
2019-05-06T02:54:46.446Z,4.20
2019-05-06T02:55:23.990Z,4.20
2019-05-06T02:56:04.140Z,4.20
2019-05-06T02:56:43.325Z,4.20
2019-05-06T02:57:20.411Z,4.20
2019-05-06T02:57:58.177Z,4.20
2019-05-06T02:58:36.097Z,4.20
2019-05-06T02:59:15.179Z,4.20
2019-05-06T02:59:55.280Z,4.20
2019-05-06T03:00:33.021Z,4.20
2019-05-06T03:01:13.385Z,4.20
2019-05-06T03:01:49.516Z,4.20
2019-05-06T03:02:41.914Z,4.20
2019-05-06T03:03:06.675Z,4.20
2019-05-06T03:03:44.410Z,4.20
2019-05-06T03:04:27.180Z,4.20
2019-05-06T03:05:04.501Z,4.20
2019-05-06T03:05:43.848Z,4.10
2019-05-06T03:06:23.788Z,4.10
2019-05-06T03:07:03.625Z,4.10
2019-05-06T03:07:43.507Z,4.10
2019-05-06T03:08:23.489Z,4.10
2019-05-06T03:08:59.928Z,4.10
2019-05-06T03:09:37.567Z,4.10
2019-05-06T03:10:16.842Z,4.10
2019-05-06T03:10:54.611Z,4.10
2019-05-06T03:11:33.350Z,4.10
2019-05-06T03:12:12.898Z,4.10
2019-05-06T03:12:53.461Z,4.10
2019-05-06T03:13:33.898Z,4.10
2019-05-06T03:14:13.920Z,4.10
2019-05-06T03:14:53.348Z,4.10
2019-05-06T03:15:30.127Z,4.10
2019-05-06T03:16:09.318Z,4.10
2019-05-06T03:16:47.148Z,4.10
2019-05-06T03:17:25.075Z,4.10
2019-05-06T03:18:03.216Z,4.10
2019-05-06T03:18:43.133Z,4.10
2019-05-06T03:19:23.663Z,4.10
2019-05-06T03:20:04.338Z,4.10
2019-05-06T03:20:53.324Z,4.00
2019-05-06T03:21:39.920Z,4.10
2019-05-06T03:22:28.051Z,4.00
2019-05-06T03:23:07.571Z,4.10
2019-05-06T03:23:47.856Z,4.10
2019-05-06T03:24:54.493Z,4.00
2019-05-06T03:25:33.732Z,4.10
2019-05-06T03:26:13.721Z,4.10
2019-05-06T03:26:53.417Z,4.00
2019-05-06T03:27:32.864Z,4.00
2019-05-06T03:28:13.231Z,4.00
2019-05-06T03:28:53.321Z,4.00
2019-05-06T03:29:29.480Z,4.00
2019-05-06T03:30:07.498Z,4.00
2019-05-06T03:30:46.065Z,4.00
2019-05-06T03:31:26.037Z,4.00
2019-05-06T03:32:07.263Z,4.00
2019-05-06T03:33:21.067Z,4.00
2019-05-06T03:33:44.549Z,4.00
2019-05-06T03:34:28.845Z,4.10
2019-05-06T03:35:00.752Z,4.10
2019-05-06T03:35:36.424Z,4.10
2019-05-06T03:36:13.769Z,4.10
2019-05-06T03:36:41.144Z,4.10
2019-05-06T03:37:17.696Z,4.10
2019-05-06T03:37:54.933Z,4.10
2019-05-06T03:38:35.511Z,4.10
2019-05-06T03:39:15.297Z,4.10
2019-05-06T03:39:53.141Z,4.10
2019-05-06T03:40:36.108Z,4.10
2019-05-06T03:41:13.640Z,4.10
2019-05-06T03:41:49.922Z,4.10
2019-05-06T03:42:27.456Z,4.20
2019-05-06T03:43:04.874Z,4.10
2019-05-06T03:43:45.142Z,4.20
2019-05-06T03:44:24.483Z,4.20
2019-05-06T03:45:06.898Z,4.20
2019-05-06T03:46:05.270Z,4.20
2019-05-06T03:47:05.306Z,4.20
2019-05-06T03:47:48.070Z,4.20
2019-05-06T03:48:33.302Z,4.20
2019-05-06T03:49:13.493Z,4.20
2019-05-06T03:49:54.534Z,4.20
2019-05-06T03:50:33.615Z,4.20
2019-05-06T03:51:13.527Z,4.20
2019-05-06T03:51:55.994Z,4.20
2019-05-06T03:52:33.884Z,4.30
2019-05-06T03:53:10.422Z,4.30
2019-05-06T03:53:48.863Z,4.30
2019-05-06T03:54:29.202Z,4.30
2019-05-06T03:55:07.066Z,4.30
2019-05-06T03:55:47.028Z,4.30
2019-05-06T03:56:25.264Z,4.30
2019-05-06T03:57:03.533Z,4.40
2019-05-06T03:57:43.800Z,4.40
2019-05-06T03:58:23.570Z,4.40
2019-05-06T03:59:03.077Z,4.40
2019-05-06T03:59:43.583Z,4.40
2019-05-06T04:00:23.748Z,4.50
2019-05-06T04:01:03.706Z,4.40
2019-05-06T04:01:42.905Z,4.50
2019-05-06T04:02:19.906Z,4.50
2019-05-06T04:02:57.636Z,4.60
2019-05-06T04:03:47.311Z,4.60
2019-05-06T04:04:14.914Z,4.60
2019-05-06T04:04:55.858Z,4.70
2019-05-06T04:05:36.303Z,4.70
2019-05-06T04:06:16.396Z,4.80
2019-05-06T04:06:54.098Z,4.90
2019-05-06T04:07:34.037Z,4.90
2019-05-06T04:08:33.859Z,5.00
2019-05-06T04:09:13.021Z,5.10
2019-05-06T04:09:53.528Z,5.20
2019-05-06T04:10:33.756Z,5.30
2019-05-06T04:11:13.663Z,5.40
2019-05-06T04:11:59.027Z,5.40
2019-05-06T04:12:38.286Z,5.50
2019-05-06T04:13:16.334Z,5.60
2019-05-06T04:13:54.497Z,5.70
2019-05-06T04:14:54.063Z,5.80
2019-05-06T04:15:50.260Z,5.90
2019-05-06T04:16:46.432Z,6.00
2019-05-06T04:17:43.862Z,6.10
2019-05-06T04:18:23.867Z,6.20
2019-05-06T04:19:09.876Z,6.30
2019-05-06T04:19:53.431Z,6.40
2019-05-06T04:20:53.195Z,6.40
2019-05-06T04:21:39.201Z,6.50
2019-05-06T04:22:53.121Z,6.70
2019-05-06T04:23:43.712Z,6.70
2019-05-06T04:24:43.821Z,6.80
2019-05-06T04:25:59.085Z,6.90
2019-05-06T04:26:58.199Z,6.90
2019-05-06T04:27:48.966Z,7.00
2019-05-06T04:28:29.616Z,7.10
2019-05-06T04:29:07.917Z,7.10
2019-05-06T04:29:45.736Z,7.10
2019-05-06T04:30:43.066Z,7.20
2019-05-06T04:31:22.879Z,7.20
2019-05-06T04:32:03.521Z,7.30
2019-05-06T04:32:43.159Z,7.40
2019-05-06T04:33:19.923Z,7.40
2019-05-06T04:34:10.169Z,7.40
2019-05-06T04:34:37.852Z,7.50
2019-05-06T04:35:15.090Z,7.50
2019-05-06T04:35:54.056Z,7.60
2019-05-06T04:36:33.697Z,7.60
2019-05-06T04:37:14.293Z,7.70
2019-05-06T04:37:53.880Z,7.70
2019-05-06T04:38:30.298Z,7.80
2019-05-06T04:39:08.007Z,7.80
2019-05-06T04:39:46.403Z,7.90
2019-05-06T04:40:25.196Z,7.90
2019-05-06T04:41:03.345Z,8.00
2019-05-06T04:41:43.391Z,8.00
2019-05-06T04:42:23.299Z,8.10
2019-05-06T04:43:03.371Z,8.10
2019-05-06T04:43:40.362Z,8.20
2019-05-06T04:44:19.661Z,8.20
2019-05-06T04:44:57.772Z,8.20
2019-05-06T04:45:35.520Z,8.30
2019-05-06T04:46:16.808Z,8.30
2019-05-06T04:46:56.058Z,8.40
2019-05-06T04:47:33.613Z,8.40
2019-05-06T04:48:14.311Z,8.50
2019-05-06T04:48:50.541Z,8.50
2019-05-06T04:49:28.470Z,8.60
2019-05-06T04:50:05.998Z,8.70
2019-05-06T04:50:44.370Z,8.70
2019-05-06T04:51:24.740Z,8.80
2019-05-06T04:52:03.693Z,8.80
2019-05-06T04:52:45.319Z,8.90
2019-05-06T04:53:23.773Z,8.90
2019-05-06T04:54:04.225Z,9.00
2019-05-06T04:54:43.957Z,9.10
2019-05-06T04:55:22.531Z,9.10
2019-05-06T04:55:59.477Z,9.20
2019-05-06T04:56:37.529Z,9.30
2019-05-06T04:57:14.493Z,9.30
2019-05-06T04:57:58.231Z,9.30
2019-05-06T04:58:36.075Z,9.40
2019-05-06T04:59:14.060Z,9.40
2019-05-06T04:59:54.272Z,9.50
2019-05-06T05:00:33.146Z,9.50
2019-05-06T05:01:12.980Z,9.50
2019-05-06T05:01:53.161Z,9.50
2019-05-06T05:02:29.057Z,9.50
2019-05-06T05:03:09.161Z,9.50
2019-05-06T05:03:47.033Z,9.50
2019-05-06T05:04:32.254Z,9.60
2019-05-06T05:05:06.817Z,9.60
2019-05-06T05:05:45.103Z,9.60
2019-05-06T05:06:23.257Z,9.60
2019-05-06T05:07:03.271Z,9.60
2019-05-06T05:07:42.377Z,9.50
2019-05-06T05:08:22.465Z,9.60
2019-05-06T05:08:59.737Z,9.50
2019-05-06T05:09:37.175Z,9.50
2019-05-06T05:10:19.713Z,9.50
2019-05-06T05:11:09.480Z,9.50
2019-05-06T05:11:53.473Z,9.50
2019-05-06T05:12:39.002Z,9.60
2019-05-06T05:13:28.503Z,9.60
2019-05-06T05:14:27.742Z,9.60
2019-05-06T05:15:24.400Z,9.60
2019-05-06T05:16:07.691Z,9.70
2019-05-06T05:16:53.187Z,9.70
2019-05-06T05:17:42.100Z,9.70
2019-05-06T05:18:29.128Z,9.70
2019-05-06T05:19:08.861Z,9.80
2019-05-06T05:19:46.852Z,9.80
2019-05-06T05:20:37.009Z,9.80
2019-05-06T05:21:03.198Z,9.80
2019-05-06T05:22:08.084Z,9.80
2019-05-06T05:22:46.460Z,9.90
2019-05-06T05:23:23.847Z,9.90
2019-05-06T05:24:02.035Z,9.90
2019-05-06T05:24:40.080Z,10.00
2019-05-06T05:25:18.047Z,10.00
2019-05-06T05:25:59.033Z,10.00
2019-05-06T05:26:37.715Z,10.10
2019-05-06T05:27:15.425Z,10.10
2019-05-06T05:27:55.688Z,10.20
2019-05-06T05:28:33.112Z,10.20
2019-05-06T05:29:13.776Z,10.20
2019-05-06T05:29:52.206Z,10.30
2019-05-06T05:30:32.690Z,10.40
2019-05-06T05:31:12.134Z,10.40
2019-05-06T05:31:49.381Z,10.50
2019-05-06T05:32:27.174Z,10.50
2019-05-06T05:33:05.327Z,10.60
2019-05-06T05:33:43.111Z,10.60
2019-05-06T05:34:22.476Z,10.60
2019-05-06T05:35:02.040Z,10.70
2019-05-06T05:35:40.211Z,10.70
2019-05-06T05:36:18.113Z,10.70
2019-05-06T05:36:55.918Z,10.70
2019-05-06T05:37:33.842Z,10.60
2019-05-06T05:38:37.875Z,10.60
2019-05-06T05:39:16.141Z,10.60
2019-05-06T05:39:53.345Z,10.60
2019-05-06T05:40:32.186Z,10.50
2019-05-06T05:41:12.011Z,10.50
2019-05-06T05:41:49.585Z,10.50
2019-05-06T05:42:43.653Z,10.50
2019-05-06T05:43:26.389Z,10.60
2019-05-06T05:44:08.398Z,10.60
2019-05-06T05:44:46.065Z,10.60
2019-05-06T05:45:32.670Z,10.70
2019-05-06T05:46:12.476Z,10.70
2019-05-06T05:46:49.187Z,10.80
2019-05-06T05:47:26.185Z,10.80
2019-05-06T05:48:07.630Z,10.80
2019-05-06T05:49:06.622Z,10.80
2019-05-06T05:50:22.679Z,10.80
2019-05-06T05:51:00.102Z,10.70
2019-05-06T05:51:37.458Z,10.70
2019-05-06T05:52:15.424Z,10.70
2019-05-06T05:52:52.947Z,10.70
2019-05-06T05:53:30.526Z,10.70
2019-05-06T05:54:08.004Z,10.60
2019-05-06T05:54:45.512Z,10.60
2019-05-06T05:55:22.745Z,10.60
2019-05-06T05:56:02.550Z,10.60
2019-05-06T05:56:39.433Z,10.60
2019-05-06T05:57:18.053Z,10.60
2019-05-06T05:57:55.992Z,10.60
2019-05-06T05:58:33.561Z,10.50
2019-05-06T05:59:12.272Z,10.50
2019-05-06T05:59:52.855Z,10.50
2019-05-06T06:00:32.454Z,10.50
2019-05-06T06:01:12.467Z,10.50
2019-05-06T06:01:48.957Z,10.40
2019-05-06T06:02:26.589Z,10.40
2019-05-06T06:03:07.068Z,10.40
2019-05-06T06:03:45.248Z,10.40
2019-05-06T06:04:23.047Z,10.40
2019-05-06T06:05:02.555Z,10.30
2019-05-06T06:05:42.659Z,10.30
2019-05-06T06:06:22.638Z,10.30
2019-05-06T06:07:02.931Z,10.30
2019-05-06T06:07:42.126Z,10.30
2019-05-06T06:08:22.876Z,10.20
2019-05-06T06:09:00.345Z,10.20
2019-05-06T06:09:49.247Z,10.10
2019-05-06T06:11:04.303Z,10.10
2019-05-06T06:11:53.561Z,10.00
2019-05-06T06:12:32.439Z,9.90
2019-05-06T06:13:10.066Z,9.80
2019-05-06T06:13:47.632Z,9.70
2019-05-06T06:14:56.187Z,9.60
2019-05-06T06:15:54.917Z,9.60
2019-05-06T06:16:56.363Z,9.50
2019-05-06T06:17:52.060Z,9.40
2019-05-06T06:18:43.801Z,9.30
2019-05-06T06:19:27.398Z,9.30
2019-05-06T06:20:24.435Z,9.30
2019-05-06T06:21:25.688Z,9.20
2019-05-06T06:22:05.004Z,9.20
2019-05-06T06:22:42.560Z,9.10
2019-05-06T06:23:35.413Z,9.10
2019-05-06T06:24:17.784Z,9.10
2019-05-06T06:24:54.997Z,9.00
2019-05-06T06:25:33.571Z,9.00
2019-05-06T06:26:12.127Z,9.00
2019-05-06T06:26:57.973Z,9.00
2019-05-06T06:27:48.600Z,8.90
2019-05-06T06:28:26.561Z,8.90
2019-05-06T06:29:04.219Z,8.90
2019-05-06T06:29:41.842Z,8.90
2019-05-06T06:30:22.193Z,8.90
2019-05-06T06:31:12.091Z,8.90
2019-05-06T06:32:27.457Z,8.90
2019-05-06T06:33:04.966Z,8.90
2019-05-06T06:33:43.047Z,8.90
2019-05-06T06:34:28.433Z,8.90
2019-05-06T06:35:20.048Z,8.90
2019-05-06T06:36:23.091Z,9.00
2019-05-06T06:37:22.486Z,9.00
2019-05-06T06:38:04.027Z,9.00
2019-05-06T06:38:58.997Z,9.00
2019-05-06T06:39:42.285Z,8.90
2019-05-06T06:40:22.252Z,8.90
2019-05-06T06:41:03.924Z,8.90
2019-05-06T06:41:42.350Z,8.90
2019-05-06T06:42:22.081Z,9.00
2019-05-06T06:43:06.278Z,9.00
2019-05-06T06:43:45.399Z,9.00
2019-05-06T06:44:25.567Z,9.00
2019-05-06T06:45:23.043Z,9.10
2019-05-06T06:46:03.228Z,9.10
2019-05-06T06:46:42.809Z,9.10
2019-05-06T06:47:24.230Z,9.10
2019-05-06T06:48:04.310Z,9.20
2019-05-06T06:48:43.066Z,9.20
2019-05-06T06:49:22.239Z,9.20
2019-05-06T06:49:59.979Z,9.30
2019-05-06T06:50:38.210Z,9.30
2019-05-06T06:51:18.617Z,9.40
2019-05-06T06:52:02.691Z,9.50
2019-05-06T06:52:42.158Z,9.60
2019-05-06T06:53:21.756Z,9.80
2019-05-06T06:53:59.235Z,9.90
2019-05-06T06:54:37.502Z,10.00
2019-05-06T06:55:18.313Z,10.10
2019-05-06T06:56:13.693Z,10.20
2019-05-06T06:57:09.357Z,10.30
2019-05-06T06:58:18.034Z,10.50
2019-05-06T06:59:16.481Z,10.70
2019-05-06T07:00:07.197Z,10.80
2019-05-06T07:01:12.358Z,10.90
2019-05-06T07:01:59.250Z,11.00
2019-05-06T07:02:49.833Z,11.00
2019-05-06T07:03:37.750Z,11.10
2019-05-06T07:04:19.789Z,11.10
2019-05-06T07:05:21.033Z,11.20
2019-05-06T07:06:02.323Z,11.20
2019-05-06T07:06:49.167Z,11.20
2019-05-06T07:07:40.235Z,11.30
2019-05-06T07:08:07.145Z,11.30
2019-05-06T07:08:44.755Z,11.30
2019-05-06T07:09:23.196Z,11.30
2019-05-06T07:10:02.645Z,11.30
2019-05-06T07:10:46.252Z,11.30
2019-05-06T07:11:24.141Z,11.30
2019-05-06T07:12:03.446Z,11.30
2019-05-06T07:12:42.726Z,11.30
2019-05-06T07:13:23.158Z,11.30
2019-05-06T07:14:03.013Z,11.30
2019-05-06T07:14:40.200Z,11.30
2019-05-06T07:15:17.452Z,11.30
2019-05-06T07:15:57.624Z,11.40
2019-05-06T07:16:35.983Z,11.40
2019-05-06T07:17:15.393Z,11.40
2019-05-06T07:17:52.602Z,11.40
2019-05-06T07:18:29.452Z,11.50
2019-05-06T07:19:12.784Z,11.50
2019-05-06T07:19:54.829Z,11.60
2019-05-06T07:20:35.629Z,11.60
2019-05-06T07:21:35.132Z,11.60
2019-05-06T07:22:12.910Z,11.70
2019-05-06T07:22:52.893Z,11.80
2019-05-06T07:23:32.505Z,11.80
2019-05-06T07:24:09.121Z,11.80
2019-05-06T07:24:46.644Z,11.80
2019-05-06T07:25:24.393Z,11.70
2019-05-06T07:26:03.078Z,11.70
2019-05-06T07:26:46.967Z,11.70
2019-05-06T07:27:25.383Z,11.70
2019-05-06T07:28:03.056Z,11.70
2019-05-06T07:28:40.002Z,11.60
2019-05-06T07:29:26.349Z,11.60
2019-05-06T07:30:03.040Z,11.60
2019-05-06T07:30:41.968Z,11.50
2019-05-06T07:31:25.718Z,11.50
2019-05-06T07:31:59.273Z,11.40
2019-05-06T07:32:55.564Z,11.40
2019-05-06T07:33:33.734Z,11.30
2019-05-06T07:34:11.988Z,11.30
2019-05-06T07:35:08.384Z,11.30
2019-05-06T07:35:46.006Z,11.30
2019-05-06T07:36:23.621Z,11.30
2019-05-06T07:37:03.262Z,11.30
2019-05-06T07:37:42.285Z,11.40
2019-05-06T07:38:23.021Z,11.50
2019-05-06T07:39:04.103Z,11.50
2019-05-06T07:39:39.529Z,11.60
2019-05-06T07:40:17.553Z,11.60
2019-05-06T07:41:04.601Z,11.70
2019-05-06T07:41:46.237Z,11.70
2019-05-06T07:42:28.240Z,11.70
2019-05-06T07:43:24.638Z,11.70
2019-05-06T07:44:12.983Z,11.70
2019-05-06T07:45:08.992Z,11.70
2019-05-06T07:45:48.965Z,11.70
2019-05-06T07:46:38.637Z,11.70
2019-05-06T07:47:23.927Z,11.70
2019-05-06T07:48:03.797Z,11.80
2019-05-06T07:48:42.885Z,11.80
2019-05-06T07:49:23.612Z,11.80
2019-05-06T07:50:02.693Z,11.90
2019-05-06T07:50:42.397Z,11.90
2019-05-06T07:51:42.009Z,11.90
2019-05-06T07:52:19.407Z,11.90
2019-05-06T07:53:08.032Z,12.00
2019-05-06T07:53:45.821Z,12.10
2019-05-06T07:54:23.210Z,12.10
2019-05-06T07:55:02.565Z,12.10
2019-05-06T07:55:44.929Z,12.20
2019-05-06T07:56:22.803Z,12.20
2019-05-06T07:57:02.237Z,12.20
2019-05-06T07:57:42.300Z,12.30
2019-05-06T07:58:18.986Z,12.30
2019-05-06T07:59:12.587Z,12.40
2019-05-06T07:59:49.730Z,12.50
2019-05-06T08:00:27.110Z,12.50
2019-05-06T08:01:04.567Z,12.50
2019-05-06T08:01:43.991Z,12.60
2019-05-06T08:02:22.914Z,12.60
2019-05-06T08:03:02.448Z,12.70
2019-05-06T08:03:39.710Z,12.70
2019-05-06T08:04:16.591Z,12.80
2019-05-06T08:04:53.678Z,12.80
2019-05-06T08:05:32.371Z,12.80
2019-05-06T08:06:17.401Z,12.80
2019-05-06T08:06:54.775Z,12.80
2019-05-06T08:07:33.260Z,12.80
2019-05-06T08:08:12.812Z,12.80
2019-05-06T08:08:53.442Z,12.80
2019-05-06T08:09:29.511Z,12.80
2019-05-06T08:10:07.997Z,12.90
2019-05-06T08:10:44.458Z,12.90
2019-05-06T08:11:22.312Z,12.90
2019-05-06T08:12:03.401Z,13.00
2019-05-06T08:12:42.824Z,13.00
2019-05-06T08:13:22.479Z,13.00
2019-05-06T08:13:59.531Z,13.00
2019-05-06T08:14:43.765Z,13.00
2019-05-06T08:15:22.670Z,13.00
2019-05-06T08:16:02.205Z,13.00
2019-05-06T08:16:47.387Z,13.00
2019-05-06T08:17:34.213Z,13.00
2019-05-06T08:18:12.570Z,13.00
2019-05-06T08:18:52.654Z,13.00
2019-05-06T08:19:30.409Z,13.00
2019-05-06T08:20:09.982Z,13.10
2019-05-06T08:20:48.316Z,13.10
2019-05-06T08:21:27.648Z,13.10
2019-05-06T08:22:09.113Z,13.10
2019-05-06T08:22:57.065Z,13.10
2019-05-06T08:23:42.791Z,13.10
2019-05-06T08:24:20.127Z,13.20
2019-05-06T08:24:58.041Z,13.20
2019-05-06T08:25:42.531Z,13.20
2019-05-06T08:26:22.250Z,13.30
2019-05-06T08:26:58.946Z,13.30
2019-05-06T08:27:36.812Z,13.20
2019-05-06T08:28:14.365Z,13.30
2019-05-06T08:28:52.715Z,13.30
2019-05-06T08:29:32.915Z,13.20
2019-05-06T08:30:12.728Z,13.30
2019-05-06T08:30:50.213Z,13.20
2019-05-06T08:31:27.435Z,13.30
2019-05-06T08:32:04.978Z,13.30
2019-05-06T08:32:42.890Z,13.30
2019-05-06T08:33:21.988Z,13.30
2019-05-06T08:33:59.694Z,13.30
2019-05-06T08:34:37.193Z,13.30
2019-05-06T08:35:16.644Z,13.30
2019-05-06T08:36:07.563Z,13.30
2019-05-06T08:36:54.154Z,13.30
2019-05-06T08:37:33.666Z,13.30
2019-05-06T08:38:12.172Z,13.30
2019-05-06T08:39:03.790Z,13.30
2019-05-06T08:39:45.567Z,13.30
2019-05-06T08:40:22.723Z,13.20
2019-05-06T08:41:00.378Z,13.20
2019-05-06T08:41:38.081Z,13.20
2019-05-06T08:42:15.685Z,13.10
2019-05-06T08:42:53.258Z,13.10
2019-05-06T08:43:32.648Z,13.10
2019-05-06T08:44:12.829Z,13.10
2019-05-06T08:44:53.055Z,13.10
2019-05-06T08:45:32.493Z,13.10
2019-05-06T08:46:12.074Z,13.10
2019-05-06T08:46:53.130Z,13.20
2019-05-06T08:47:29.620Z,13.30
2019-05-06T08:48:07.384Z,13.30
2019-05-06T08:48:45.301Z,13.40
2019-05-06T08:49:23.256Z,13.40
2019-05-06T08:50:07.704Z,13.40
2019-05-06T08:51:03.986Z,13.50
2019-05-06T08:51:49.742Z,13.50
2019-05-06T08:52:29.582Z,13.50
2019-05-06T08:53:14.617Z,13.50
2019-05-06T08:53:56.423Z,13.50
2019-05-06T08:54:40.041Z,13.50
2019-05-06T08:55:25.986Z,13.50
2019-05-06T08:56:04.548Z,13.50
2019-05-06T08:56:44.758Z,13.50
2019-05-06T08:57:24.005Z,13.50
2019-05-06T08:58:03.510Z,13.40
2019-05-06T08:58:47.293Z,13.30
2019-05-06T08:59:25.178Z,13.30
2019-05-06T09:00:03.484Z,13.20
2019-05-06T09:00:53.209Z,13.20
2019-05-06T09:01:53.164Z,13.10
2019-05-06T09:02:32.388Z,13.10
2019-05-06T09:03:09.034Z,13.00
2019-05-06T09:03:46.480Z,13.10
2019-05-06T09:04:24.267Z,13.10
2019-05-06T09:05:03.932Z,13.10
2019-05-06T09:05:42.386Z,13.20